DMAD Reservoir




Date Reservoir Capacity (AF) Hourly Avg. Stream Stage (ft) Reservoir Outflow (cfs) Reservoir Gate 1 Height (ft) Reservoir Gate 2 Height (ft) Reservoir Gate 3 Height (ft) Stream Flow (cfs) Stream Conductivity (ppm) Battery Voltage (V) Reservoir Height (ft) Canal Flow (cfs) Canal Height (ft) Canal Flow 2 (ft)
05/01/2017 6,306 211 1.52 0.00 1.00 0.00 0.00 13.54 61.46 0.00 0.00
05/02/2017 6,341 229 1.52 0.00 1.23 0.00 0.00 13.42 61.50 0.00 0.00
05/03/2017 6,132 302 1.80 0.00 1.85 0.00 0.00 13.19 61.26 0.00 0.00
05/04/2017 5,957 311 2.31 0.00 1.48 0.00 0.00 13.37 61.06 0.00 0.00
05/05/2017 6,036 293 2.31 0.00 1.25 0.00 0.00 13.33 61.15 0.00 0.00
05/06/2017 6,053 362 2.32 0.00 2.10 0.00 0.00 12.91 61.17 0.00 0.00
05/07/2017 5,914 376 2.32 0.00 2.30 0.00 0.00 13.50 61.01 0.00 0.00
05/08/2017 5,800 374 2.32 0.00 2.30 0.00 0.00 13.44 60.88 0.00 0.00
05/09/2017 5,635 328 2.32 0.00 1.75 0.00 0.00 13.24 60.69 0.00 0.00
05/10/2017 5,496 306 2.32 0.00 1.50 0.00 0.00 13.52 60.53 0.00 0.00
05/11/2017 5,487 306 2.32 0.00 1.50 0.00 0.00 13.47 60.52 0.00 0.00
05/12/2017 5,391 318 2.32 0.00 1.69 0.00 0.00 13.30 60.41 0.00 0.00
05/13/2017 5,217 357 2.32 0.00 2.20 0.00 0.00 13.41 60.21 0.00 0.00
05/14/2017 5,060 353 2.32 0.00 2.20 0.00 0.00 13.52 60.03 0.00 0.00
05/15/2017 4,923 351 2.32 0.00 2.20 0.00 0.00 13.47 59.85 0.00 0.00
05/16/2017 4,960 327 2.32 0.00 1.90 0.00 0.00 13.23 59.90 0.00 0.00
05/17/2017 5,165 188 1.35 0.00 1.03 0.00 0.00 12.80 60.15 0.00 0.00
05/18/2017 5,618 135 0.83 0.00 0.83 0.00 0.00 12.94 60.67 0.00 0.00
05/19/2017 6,071 77 0.83 0.00 0.10 0.00 0.00 13.15 61.19 0.00 0.00
05/20/2017 6,315 78 0.83 0.00 0.10 0.00 0.00 13.59 61.47 0.00 0.00
05/21/2017 6,472 75 0.83 0.00 0.06 0.00 0.00 13.51 61.65 0.00 0.00
05/22/2017 6,603 63 0.68 0.00 0.06 0.00 0.00 13.47 61.80 0.00 0.00
05/23/2017 6,507 125 0.49 0.00 0.99 0.00 0.00 13.29 61.69 0.00 0.00
05/24/2017 6,123 209 0.49 0.00 2.03 0.00 0.00 13.23 61.25 0.00 0.00
05/25/2017 5,705 217 0.49 0.00 2.17 0.00 0.00 13.46 60.77 0.00 0.00
05/26/2017 5,513 264 0.49 0.00 2.83 0.00 0.00 13.30 60.55 0.00 0.00
05/27/2017 5,243 253 0.49 0.00 2.71 0.00 0.00 13.46 60.24 0.00 0.00
05/28/2017 5,391 267 0.49 0.00 2.88 0.00 0.00 13.42 60.41 0.00 0.00
05/29/2017 5,679 271 0.49 0.00 2.89 0.00 0.00 13.43 60.74 0.00 0.00
05/30/2017 5,740 228 0.49 0.00 2.32 0.00 0.00 13.37 60.81 0.00 0.00
05/31/2017 5,644 211 0.49 0.00 2.11 0.00 0.00 13.29 60.70 0.00 0.00
Average 250 0.00 0.00
Maximum 376 0.00 0.00
Minimum 63 0.00 0.00
Total Volume (AF) 15,398 0.00 0.00